ROMMA est une association bénévole à but non lucratif. Votre soutien est indispensable : ADHERER à ROMMA ou FAIRE un DON

Le Versoud - (38, Isère)

Vallée du Grésivaudan (220 m)   Longitude: 05° 51' 44" E   Latitude: 45° 13' 06" N Station partenaire n°6
 

Détail journalier du     <<     >>

Température Precipitation Humidité Pression Vent Dir Rafale Dir. rafale Ensol.
Heure (°C) (mm) (%) (hPa) (km/h) (km/h) (min)
01:00 18.903199912SSO52O0
02:00 18.803299914OSO61OSO0
03:00 15.1056100120OSO74OSO0
04:00 13.406310018SO45OSO0
05:00 13.205910022SSO24SO0
06:00 10.706510057S37SSE0
07:00 9.04.67710071---24SE0
08:00 8.10.6871008013S0
09:00 8.20901009011SE0
10:00 8.9090101000---0
11:00 10.1080101002OSO0
12:00 11.7071101000---0
13:00 14.80471010013O25
14:00 14.805410101---15O25
15:00 13.70611010010N15
16:00 14.9053101008NE45
17:00 15.10501010011NE50
18:00 14.2055101005NNE60
19:00 11.7065101100---5
20:00 10.3063101200---0
21:00 8.9072101300---0
22:00 8.0075101300---0
23:00 7.2077101400---0
minuit 6.2080101500---0

Graphique du 07-03-2019

 

Serveur OMMA